Time;durP1;ratioP1;P1;durP2;ratioP2;P2;SDS_P1;SDS_P2;PMS_P1;PMS_P2;Temp;Humidity;BMP_temperature;BMP_pressure;BME280_temperature;BME280_humidity;BME280_pressure;Samples;Min_cycle;Max_cycle;Signal;HPM_P1;HPM_P2
2021/05/05 00:00:38;;;;;;;6.22;0.40;;;6.30;94.40;;;;;;3574978;40;20457;-79
2021/05/05 00:03:04;;;;;;;0.95;0.25;;;6.20;94.70;;;;;;3575238;40;20044;-79
2021/05/05 00:05:30;;;;;;;1.15;0.10;;;6.20;94.70;;;;;;3576407;40;20077;-80
2021/05/05 00:07:56;;;;;;;5.03;0.90;;;6.20;94.80;;;;;;3576326;40;20037;-79
2021/05/05 00:10:22;;;;;;;6.55;0.55;;;6.20;95.00;;;;;;3580428;40;20327;-79
2021/05/05 00:12:49;;;;;;;6.53;0.20;;;6.20;95.00;;;;;;3614562;23;20040;-79
2021/05/05 00:15:23;;;;;;;2.92;0.30;;;6.20;95.10;;;;;;3585324;39;20040;-79
2021/05/05 00:17:49;;;;;;;;;;;6.30;95.10;;;;;;3596803;39;20117;-78
2021/05/05 00:20:15;;;;;;;2.00;0.43;;;6.30;94.90;;;;;;3615178;23;20307;-79
2021/05/05 00:22:42;;;;;;;5.18;0.65;;;6.30;94.90;;;;;;3594135;39;20058;-78
2021/05/05 00:25:09;;;;;;;7.32;0.45;;;6.30;95.00;;;;;;3596016;39;20036;-79
2021/05/05 00:27:34;;;;;;;5.45;0.45;;;6.40;95.00;;;;;;3594351;39;20099;-81
2021/05/05 00:30:00;;;;;;;10.00;0.85;;;6.40;95.00;;;;;;3595938;39;20043;-80
2021/05/05 00:32:27;;;;;;;5.85;0.30;;;6.50;95.10;;;;;;3597404;39;20043;-80
2021/05/05 00:34:53;;;;;;;6.72;0.32;;;6.40;95.00;;;;;;3605022;39;20151;-80
2021/05/05 00:37:19;;;;;;;7.00;0.70;;;6.40;95.10;;;;;;3597629;39;20077;-80
2021/05/05 00:39:44;;;;;;;5.80;1.85;;;6.40;95.10;;;;;;3597077;39;20388;-81
2021/05/05 00:42:10;;;;;;;4.35;0.30;;;6.40;95.10;;;;;;3596356;39;20036;-80
2021/05/05 00:44:36;;;;;;;3.33;0.50;;;6.40;95.00;;;;;;3595378;39;20036;-81
2021/05/05 00:47:02;;;;;;;5.10;0.20;;;6.40;94.90;;;;;;3597828;39;20628;-80
2021/05/05 00:49:28;;;;;;;5.60;0.20;;;6.40;94.80;;;;;;3597952;39;20042;-81
2021/05/05 00:51:56;;;;;;;4.40;0.30;;;6.40;94.80;;;;;;3597054;39;20048;-80
2021/05/05 00:54:22;;;;;;;6.22;0.40;;;6.30;94.70;;;;;;3597257;39;20044;-80
2021/05/05 00:56:49;;;;;;;3.25;0.20;;;6.40;94.90;;;;;;3596290;39;20042;-80
2021/05/05 00:59:14;;;;;;;6.93;0.22;;;6.30;95.00;;;;;;3597756;39;20044;-81
2021/05/05 01:01:42;;;;;;;6.22;0.30;;;6.40;94.80;;;;;;3598155;39;20072;-80
2021/05/05 01:04:10;;;;;;;2.50;0.63;;;6.40;94.70;;;;;;3598962;39;20039;-79
2021/05/05 01:06:36;;;;;;;3.63;1.08;;;6.40;94.90;;;;;;3597747;39;20035;-81
2021/05/05 01:09:04;;;;;;;14.57;0.73;;;6.40;94.90;;;;;;3594915;39;20125;-80
2021/05/05 01:11:30;;;;;;;6.13;0.20;;;6.40;94.80;;;;;;3606284;39;20051;-80
2021/05/05 01:13:55;;;;;;;4.47;0.60;;;6.40;94.60;;;;;;3596379;39;20052;-80
2021/05/05 01:16:21;;;;;;;4.43;0.20;;;6.40;94.60;;;;;;3605498;39;20039;-81
2021/05/05 01:18:49;;;;;;;2.08;0.30;;;6.40;94.60;;;;;;3597075;39;20039;-81
2021/05/05 01:21:16;;;;;;;4.03;0.65;;;6.40;94.50;;;;;;3603802;39;20054;-79
2021/05/05 01:23:43;;;;;;;1.98;0.22;;;6.50;94.30;;;;;;3606774;39;20043;-79
2021/05/05 01:26:09;;;;;;;4.28;0.30;;;6.40;94.60;;;;;;3598281;39;20039;-80
2021/05/05 01:28:40;;;;;;;1.80;0.20;;;6.30;94.50;;;;;;3606975;39;20043;-81
2021/05/05 01:31:10;;;;;;;6.65;0.20;;;6.30;94.50;;;;;;3622430;22;20064;-82
2021/05/05 01:33:37;;;;;;;2.35;0.30;;;6.30;94.60;;;;;;3594688;39;20401;-79
2021/05/05 01:36:05;;;;;;;7.53;0.68;;;6.30;94.40;;;;;;3598786;39;20027;-80
2021/05/05 01:38:31;;;;;;;2.38;0.55;;;6.20;94.30;;;;;;3598273;39;20075;-79
2021/05/05 01:40:57;;;;;;;4.00;0.35;;;6.20;94.30;;;;;;3593149;39;20044;-79
2021/05/05 01:43:22;;;;;;;6.35;0.90;;;6.20;94.30;;;;;;3597781;39;20042;-79
2021/05/05 01:45:48;;;;;;;8.27;0.82;;;6.10;94.30;;;;;;3591929;39;20668;-79
2021/05/05 01:48:16;;;;;;;4.13;0.15;;;6.10;94.50;;;;;;3590358;39;20391;-79
2021/05/05 01:50:42;;;;;;;7.60;0.43;;;6.10;94.50;;;;;;3595896;39;20043;-79
2021/05/05 01:53:08;;;;;;;7.68;0.40;;;6.10;94.50;;;;;;3600117;39;20036;-81
2021/05/05 01:55:34;;;;;;;1.38;0.73;;;6.10;94.40;;;;;;3580091;40;20043;-81
2021/05/05 01:58:00;;;;;;;4.50;0.40;;;6.20;94.40;;;;;;3577233;40;20308;-79
2021/05/05 02:00:30;;;;;;;7.57;1.05;;;6.20;94.20;;;;;;3584083;39;20044;-79
2021/05/05 02:02:56;;;;;;;3.40;0.73;;;6.20;94.00;;;;;;3606051;39;20061;-79
2021/05/05 02:05:22;;;;;;;2.35;0.55;;;6.20;94.30;;;;;;3596791;39;20120;-78
2021/05/05 02:07:48;;;;;;;2.83;0.15;;;6.20;94.50;;;;;;3586369;40;20599;-79
2021/05/05 02:10:17;;;;;;;5.18;0.30;;;6.10;94.40;;;;;;3588190;39;20273;-80
2021/05/05 02:12:43;;;;;;;8.15;0.93;;;6.10;94.50;;;;;;3577825;40;20043;-79
2021/05/05 02:15:11;;;;;;;5.35;0.20;;;6.10;94.50;;;;;;3585820;40;20053;-78
2021/05/05 02:17:38;;;;;;;2.90;0.28;;;6.10;94.60;;;;;;3594933;39;20043;-79
2021/05/05 02:20:09;;;;;;;7.93;0.20;;;6.10;94.60;;;;;;3596733;39;20036;-79
2021/05/05 02:22:35;;;;;;;2.92;0.20;;;6.10;94.50;;;;;;3601821;39;20050;-78
2021/05/05 02:25:02;;;;;;;7.45;0.70;;;6.10;94.50;;;;;;3601190;39;20125;-78
2021/05/05 02:27:28;;;;;;;9.15;0.60;;;6.10;94.40;;;;;;3595640;39;20258;-78
2021/05/05 02:29:57;;;;;;;3.53;0.20;;;6.10;94.50;;;;;;3602223;39;20060;-77
2021/05/05 02:32:24;;;;;;;2.88;0.30;;;6.10;94.30;;;;;;3600503;39;20080;-78
2021/05/05 02:34:52;;;;;;;2.03;0.40;;;6.20;94.60;;;;;;3605563;39;20101;-78
2021/05/05 02:37:17;;;;;;;5.78;0.95;;;6.10;94.40;;;;;;3588929;39;20035;-78
2021/05/05 02:39:44;;;;;;;3.00;0.88;;;6.10;94.50;;;;;;3588272;40;20446;-78
2021/05/05 02:42:14;;;;;;;6.72;0.38;;;6.00;94.60;;;;;;3586901;40;20049;-78
2021/05/05 02:44:41;;;;;;;2.17;0.40;;;6.00;94.60;;;;;;3597723;39;20043;-79
2021/05/05 02:47:08;;;;;;;3.70;0.30;;;6.00;94.50;;;;;;3605383;39;20523;-79
2021/05/05 02:49:34;;;;;;;3.70;0.20;;;5.90;94.60;;;;;;3607853;39;20142;-79
2021/05/05 02:52:01;;;;;;;8.63;1.15;;;6.00;94.50;;;;;;3598076;39;20047;-78
2021/05/05 02:54:31;;;;;;;7.45;0.38;;;5.90;94.70;;;;;;3606611;39;20051;-78
2021/05/05 02:56:57;;;;;;;6.88;0.45;;;5.90;94.50;;;;;;3607412;39;20035;-78
2021/05/05 02:59:25;;;;;;;8.68;0.50;;;5.90;94.50;;;;;;3606707;39;20071;-77
2021/05/05 03:01:51;;;;;;;12.77;0.30;;;5.90;94.60;;;;;;3607123;39;20034;-76
2021/05/05 03:04:18;;;;;;;5.57;0.38;;;5.90;94.70;;;;;;3597857;39;20597;-76
2021/05/05 03:06:44;;;;;;;7.95;0.40;;;5.90;94.70;;;;;;3607264;39;20048;-77
2021/05/05 03:09:10;;;;;;;4.38;0.47;;;5.90;94.80;;;;;;3607291;39;20852;-78
2021/05/05 03:11:36;;;;;;;0.80;0.30;;;5.80;94.60;;;;;;3607656;39;20128;-77
2021/05/05 03:14:02;;;;;;;7.30;0.30;;;5.80;94.80;;;;;;3607039;39;20119;-77
2021/05/05 03:16:29;;;;;;;1.88;0.10;;;5.80;94.80;;;;;;3607334;39;20051;-79
2021/05/05 03:18:57;;;;;;;4.50;1.23;;;5.80;94.90;;;;;;3607168;39;20051;-77
2021/05/05 03:21:23;;;;;;;5.10;0.55;;;5.80;95.20;;;;;;3600552;39;20069;-79
2021/05/05 03:23:49;;;;;;;5.05;0.40;;;5.70;94.90;;;;;;3579441;40;20080;-79
2021/05/05 03:26:15;;;;;;;3.53;0.82;;;5.70;94.90;;;;;;3591904;39;20039;-79
2021/05/05 03:28:42;;;;;;;2.17;0.10;;;5.60;94.80;;;;;;3598033;39;20516;-78
2021/05/05 03:31:08;;;;;;;2.67;0.20;;;5.70;94.90;;;;;;3604535;39;20036;-80
2021/05/05 03:33:34;;;;;;;4.00;0.30;;;5.60;95.00;;;;;;3598019;39;20046;-80
2021/05/05 03:36:00;;;;;;;5.78;0.30;;;5.50;95.10;;;;;;3607006;39;20058;-78
2021/05/05 03:38:26;;;;;;;5.90;0.73;;;5.60;95.20;;;;;;3597844;39;20040;-79
2021/05/05 03:40:52;;;;;;;2.45;0.17;;;5.60;95.50;;;;;;3597781;39;20051;-79
2021/05/05 03:43:18;;;;;;;2.40;0.30;;;5.70;95.10;;;;;;3606986;39;20572;-78
2021/05/05 03:45:45;;;;;;;2.78;0.20;;;5.70;94.90;;;;;;3592829;39;20663;-77
2021/05/05 03:48:11;;;;;;;6.85;0.13;;;5.60;94.80;;;;;;3596662;40;20068;-78
2021/05/05 03:50:37;;;;;;;6.13;0.60;;;5.60;94.80;;;;;;3598721;39;20041;-76
2021/05/05 03:53:04;;;;;;;4.43;0.40;;;5.60;94.80;;;;;;3606957;39;20047;-79
2021/05/05 03:55:32;;;;;;;3.28;0.20;;;5.60;94.80;;;;;;3606041;39;20031;-79
2021/05/05 03:57:58;;;;;;;2.50;0.20;;;5.50;94.70;;;;;;3607180;39;20047;-79
2021/05/05 04:00:25;;;;;;;0.70;0.10;;;5.50;94.90;;;;;;3598088;39;20043;-80
2021/05/05 04:02:51;;;;;;;2.10;0.30;;;5.50;94.80;;;;;;3598235;39;20401;-77
2021/05/05 04:05:17;;;;;;;3.47;0.35;;;5.50;94.70;;;;;;3601040;39;20068;-77
2021/05/05 04:07:43;;;;;;;1.38;0.10;;;5.50;94.90;;;;;;3587636;40;20347;-79
2021/05/05 04:10:10;;;;;;;3.55;0.30;;;5.50;94.80;;;;;;3596669;40;20098;-79
2021/05/05 04:12:36;;;;;;;5.20;0.35;;;5.60;94.80;;;;;;3598750;39;20436;-78
2021/05/05 04:15:06;;;;;;;4.45;0.85;;;5.50;94.70;;;;;;3606530;39;20431;-77
2021/05/05 04:17:32;;;;;;;1.85;0.82;;;5.60;94.90;;;;;;3597762;39;20234;-77
2021/05/05 04:19:58;;;;;;;6.00;0.30;;;5.60;95.00;;;;;;3585712;39;20042;-77
2021/05/05 04:22:26;;;;;;;3.55;0.63;;;5.60;95.10;;;;;;3587995;39;20043;-77
2021/05/05 04:24:52;;;;;;;3.38;0.13;;;5.70;95.10;;;;;;3605618;39;20238;-77
2021/05/05 04:27:19;;;;;;;4.00;0.60;;;5.70;95.20;;;;;;3606598;39;20275;-78
2021/05/05 04:29:45;;;;;;;9.00;0.93;;;5.70;95.20;;;;;;3604718;39;20039;-78
2021/05/05 04:32:13;;;;;;;4.05;0.10;;;5.70;95.20;;;;;;3597083;39;20082;-76
2021/05/05 04:34:40;;;;;;;1.20;0.85;;;5.70;94.90;;;;;;3606960;39;20042;-78
2021/05/05 04:37:06;;;;;;;4.07;0.10;;;5.70;95.00;;;;;;3599594;39;20509;-78
2021/05/05 04:39:37;;;;;;;2.28;0.20;;;5.70;94.90;;;;;;3587386;40;20040;-78
2021/05/05 04:42:04;;;;;;;5.88;0.20;;;5.70;94.90;;;;;;3596567;40;20481;-78
2021/05/05 04:44:32;;;;;;;1.38;0.28;;;5.80;95.00;;;;;;3599956;39;20160;-79
2021/05/05 04:46:58;;;;;;;5.22;0.40;;;5.70;95.00;;;;;;3598515;39;20233;-78
2021/05/05 04:49:24;;;;;;;6.72;0.88;;;5.80;95.00;;;;;;3596533;40;20050;-78
2021/05/05 04:51:49;;;;;;;7.15;0.30;;;5.80;95.10;;;;;;3601748;39;20243;-77
2021/05/05 04:54:15;;;;;;;11.55;0.40;;;5.80;95.00;;;;;;3583624;40;20052;-79
2021/05/05 04:56:42;;;;;;;6.45;0.68;;;5.90;94.90;;;;;;3596016;39;20051;-79
2021/05/05 04:59:08;;;;;;;1.73;0.40;;;5.90;94.70;;;;;;3598197;39;20051;-77
2021/05/05 05:01:33;;;;;;;1.95;0.10;;;5.90;94.50;;;;;;3587273;39;20125;-78
2021/05/05 05:03:59;;;;;;;3.33;0.57;;;5.90;94.50;;;;;;3588032;39;20238;-79
2021/05/05 05:06:25;;;;;;;2.05;0.20;;;5.90;94.40;;;;;;3604951;39;20046;-77
2021/05/05 05:08:51;;;;;;;7.05;0.40;;;5.90;94.40;;;;;;3603955;39;20036;-79
2021/05/05 05:11:17;;;;;;;9.75;0.85;;;5.90;94.10;;;;;;3605227;39;20046;-79
2021/05/05 05:13:43;;;;;;;5.85;0.40;;;5.90;94.40;;;;;;3593021;39;20037;-76
2021/05/05 05:16:09;;;;;;;2.00;0.30;;;6.00;94.40;;;;;;3593190;39;20057;-76
2021/05/05 05:18:35;;;;;;;7.45;0.30;;;6.00;95.00;;;;;;3605924;39;20036;-76
2021/05/05 05:21:05;;;;;;;4.90;0.45;;;6.00;94.80;;;;;;3586746;39;20036;-77
2021/05/05 05:23:32;;;;;;;5.93;0.22;;;6.00;95.00;;;;;;3599103;39;20039;-77
2021/05/05 05:25:58;;;;;;;6.57;1.60;;;6.00;95.00;;;;;;3600827;39;20051;-76
2021/05/05 05:28:24;;;;;;;3.55;0.40;;;6.10;95.00;;;;;;3604500;39;20036;-77
2021/05/05 05:30:50;;;;;;;4.40;0.50;;;6.10;95.10;;;;;;3591132;39;20082;-77
2021/05/05 05:33:16;;;;;;;8.32;1.25;;;6.10;95.30;;;;;;3604464;39;20047;-77
2021/05/05 05:35:42;;;;;;;10.57;0.98;;;6.10;95.20;;;;;;3604038;39;20039;-77
2021/05/05 05:38:08;;;;;;;7.03;0.50;;;6.20;95.20;;;;;;3604761;39;20322;-77
2021/05/05 05:40:34;;;;;;;4.45;0.40;;;6.20;95.20;;;;;;3605584;39;20065;-76
2021/05/05 05:43:01;;;;;;;6.40;0.35;;;6.30;95.20;;;;;;3586571;40;20079;-77
2021/05/05 05:45:27;;;;;;;7.50;0.80;;;6.30;95.10;;;;;;3591982;39;20035;-78
2021/05/05 05:47:53;;;;;;;7.28;1.08;;;6.30;94.90;;;;;;3590997;40;20087;-77
2021/05/05 05:50:20;;;;;;;7.65;0.70;;;6.40;95.00;;;;;;3602741;39;20043;-78
2021/05/05 05:52:47;;;;;;;1.98;0.73;;;6.50;95.00;;;;;;3587636;40;20072;-77
2021/05/05 05:55:16;;;;;;;6.53;1.05;;;6.50;94.60;;;;;;3600203;39;20031;-77
2021/05/05 05:57:43;;;;;;;1.77;0.57;;;6.60;94.60;;;;;;3603413;39;20063;-79
2021/05/05 06:00:13;;;;;;;5.57;1.30;;;6.50;94.20;;;;;;3603946;39;20368;-77
2021/05/05 06:02:40;;;;;;;9.43;0.52;;;6.60;94.10;;;;;;3605484;39;20039;-76
2021/05/05 06:05:06;;;;;;;13.75;0.93;;;6.50;94.30;;;;;;3605142;39;20039;-74
2021/05/05 06:07:32;;;;;;;11.25;0.90;;;6.50;94.50;;;;;;3590561;40;20040;-76
2021/05/05 06:09:58;;;;;;;7.75;0.80;;;6.50;94.60;;;;;;3600140;39;20039;-75
2021/05/05 06:12:24;;;;;;;4.68;0.40;;;6.40;94.90;;;;;;3604000;39;20042;-75
2021/05/05 06:14:50;;;;;;;8.15;1.75;;;6.30;94.90;;;;;;3606765;39;20031;-75
2021/05/05 06:17:16;;;;;;;6.20;0.90;;;6.40;94.80;;;;;;3595920;40;20066;-76
2021/05/05 06:19:42;;;;;;;10.73;2.15;;;6.30;95.10;;;;;;3603099;39;20047;-76
2021/05/05 06:22:08;;;;;;;7.72;0.60;;;6.40;95.30;;;;;;3592422;39;20771;-76
2021/05/05 06:24:34;;;;;;;4.20;0.90;;;6.30;95.30;;;;;;3594487;39;20035;-77
2021/05/05 06:27:00;;;;;;;2.92;0.35;;;6.30;95.30;;;;;;3605240;39;20351;-75
2021/05/05 06:29:26;;;;;;;9.93;1.23;;;6.40;95.50;;;;;;3579932;39;20047;-74
2021/05/05 06:31:51;;;;;;;3.83;0.47;;;6.40;95.60;;;;;;3603842;39;20047;-74
2021/05/05 06:34:17;;;;;;;5.55;0.50;;;6.30;95.30;;;;;;3605238;39;20345;-76
2021/05/05 06:36:43;;;;;;;3.72;0.17;;;6.20;95.10;;;;;;3597361;39;20043;-74
2021/05/05 06:39:11;;;;;;;0.60;0.10;;;6.10;94.80;;;;;;3606875;39;20128;-76
2021/05/05 06:41:38;;;;;;;2.00;0.20;;;6.00;95.30;;;;;;3585913;39;20045;-77
2021/05/05 06:44:05;;;;;;;3.30;0.47;;;6.00;95.40;;;;;;3601778;39;20047;-75
2021/05/05 06:46:33;;;;;;;4.72;0.47;;;6.00;95.90;;;;;;3601090;39;20044;-76
2021/05/05 06:48:59;;;;;;;2.85;0.35;;;6.20;96.10;;;;;;3595549;39;20054;-77
2021/05/05 06:51:26;;;;;;;8.95;0.80;;;6.20;95.60;;;;;;3589114;39;20040;-77
2021/05/05 06:53:52;;;;;;;2.45;0.20;;;6.20;95.60;;;;;;3593145;39;20048;-75
2021/05/05 06:56:18;;;;;;;2.50;0.52;;;6.30;95.80;;;;;;3595360;39;20059;-77
2021/05/05 06:58:44;;;;;;;2.00;0.20;;;6.40;95.90;;;;;;3592643;39;20047;-78
2021/05/05 07:01:10;;;;;;;1.52;0.30;;;6.70;96.00;;;;;;3606652;39;20330;-76
2021/05/05 07:03:36;;;;;;;6.63;0.25;;;7.00;95.70;;;;;;3584526;39;20047;-76
2021/05/05 07:06:02;;;;;;;1.95;0.20;;;7.20;95.30;;;;;;3603783;39;20050;-75
2021/05/05 07:08:28;;;;;;;3.63;0.43;;;7.30;95.20;;;;;;3601679;39;20043;-76
2021/05/05 07:10:55;;;;;;;6.00;0.40;;;7.20;94.70;;;;;;3604785;39;20051;-75
2021/05/05 07:13:21;;;;;;;7.07;0.60;;;7.20;95.30;;;;;;3604846;39;20390;-76
2021/05/05 07:15:47;;;;;;;2.80;0.50;;;7.10;95.00;;;;;;3591605;40;20047;-75
2021/05/05 07:18:13;;;;;;;2.60;0.85;;;7.00;95.00;;;;;;3604023;39;20051;-75
2021/05/05 07:20:38;;;;;;;0.95;0.10;;;6.90;94.60;;;;;;3602617;39;20330;-76
2021/05/05 07:23:04;;;;;;;0.68;0.10;;;6.70;94.10;;;;;;3593786;39;20052;-75
2021/05/05 07:25:30;;;;;;;2.17;0.08;;;6.60;94.00;;;;;;3604782;39;20043;-76
2021/05/05 07:27:58;;;;;;;0.43;0.10;;;6.40;94.10;;;;;;3595552;39;20050;-75
2021/05/05 07:30:24;;;;;;;3.05;0.30;;;6.30;94.80;;;;;;3591253;39;20294;-75
2021/05/05 07:32:51;;;;;;;0.38;0.10;;;6.30;95.20;;;;;;3605724;39;20051;-75
2021/05/05 07:35:18;;;;;;;2.30;0.10;;;6.40;95.20;;;;;;3606913;39;20100;-75
2021/05/05 07:46:09;;;;;;;1.23;0.30;;;6.90;95.30;;;;;;3599563;39;20035;-78
2021/05/05 07:48:37;;;;;;;3.80;0.85;;;7.10;95.20;;;;;;3597686;39;20067;-76
2021/05/05 07:51:03;;;;;;;7.43;0.77;;;7.20;94.90;;;;;;3593041;39;20035;-78
2021/05/05 07:53:29;;;;;;;4.65;1.52;;;7.30;95.40;;;;;;3605893;39;20043;-76
2021/05/05 07:55:56;;;;;;;2.42;0.30;;;7.50;95.00;;;;;;3605893;39;20443;-77
2021/05/05 07:58:22;;;;;;;4.50;1.13;;;7.60;94.80;;;;;;3606596;39;20346;-76
2021/05/05 08:00:48;;;;;;;4.43;0.73;;;7.60;94.60;;;;;;3603268;39;20055;-76
2021/05/05 08:03:15;;;;;;;4.03;0.55;;;7.60;94.70;;;;;;3601480;39;20242;-77
2021/05/05 08:05:41;;;;;;;8.15;0.50;;;7.50;94.90;;;;;;3604147;39;20275;-77
2021/05/05 08:08:07;;;;;;;5.97;0.73;;;7.40;94.80;;;;;;3603118;39;20043;-77
2021/05/05 08:10:33;;;;;;;6.38;1.50;;;7.40;95.20;;;;;;3604183;39;20075;-77
2021/05/05 08:12:58;;;;;;;6.15;1.02;;;7.40;95.30;;;;;;3602124;39;20031;-78
2021/05/05 08:15:24;;;;;;;5.75;0.35;;;7.60;95.60;;;;;;3593463;39;20059;-76
2021/05/05 08:17:50;;;;;;;3.42;0.28;;;7.60;95.60;;;;;;3603264;39;20100;-78
2021/05/05 08:20:16;;;;;;;4.25;0.20;;;7.70;95.20;;;;;;3604586;39;20039;-76
2021/05/05 08:22:42;;;;;;;0.88;0.17;;;7.60;94.70;;;;;;3603444;39;20035;-75
2021/05/05 08:25:08;;;;;;;3.13;0.20;;;7.60;94.70;;;;;;3605192;39;20059;-75
2021/05/05 08:27:35;;;;;;;2.67;0.10;;;7.50;94.60;;;;;;3605101;39;20103;-75
2021/05/05 08:30:01;;;;;;;1.02;0.10;;;7.40;94.80;;;;;;3604086;39;20050;-75
2021/05/05 08:32:26;;;;;;;3.47;0.35;;;7.30;94.80;;;;;;3587747;39;20051;-75
2021/05/05 08:34:52;;;;;;;2.65;0.30;;;7.30;95.20;;;;;;3592196;39;20039;-73
2021/05/05 08:37:19;;;;;;;2.80;0.57;;;7.30;94.80;;;;;;3603170;39;20047;-74
2021/05/05 08:39:44;;;;;;;0.88;0.28;;;7.40;95.00;;;;;;3602030;39;20036;-75
2021/05/05 08:42:12;;;;;;;2.85;0.10;;;7.50;94.70;;;;;;3604450;39;20047;-75
2021/05/05 08:44:38;;;;;;;3.03;0.03;;;7.50;94.50;;;;;;3579556;39;20044;-75
2021/05/05 08:47:04;;;;;;;7.45;0.68;;;7.70;95.20;;;;;;3603036;39;20068;-74
2021/05/05 08:49:32;;;;;;;3.55;0.30;;;7.90;95.00;;;;;;3604864;39;20046;-75
2021/05/05 08:51:59;;;;;;;5.70;0.28;;;8.00;94.40;;;;;;3592894;39;20133;-76
2021/05/05 08:54:25;;;;;;;4.28;0.40;;;8.00;94.90;;;;;;3606106;39;20031;-76
2021/05/05 08:56:51;;;;;;;2.83;0.20;;;8.30;95.00;;;;;;3593754;39;20043;-75
2021/05/05 08:59:18;;;;;;;1.50;0.45;;;8.50;94.10;;;;;;3607775;23;20052;-75
2021/05/05 09:01:45;;;;;;;2.15;0.52;;;8.80;94.50;;;;;;3596285;40;20278;-76
2021/05/05 09:04:11;;;;;;;2.33;0.30;;;9.10;94.40;;;;;;3596132;40;20042;-75
2021/05/05 09:06:54;;;;;;;2.75;0.20;;;9.30;94.40;;;;;;3596044;40;20047;-77
2021/05/05 09:09:45;;;;;;;7.78;0.40;;;9.50;94.50;;;;;;3596375;40;20063;-78
2021/05/05 09:12:17;;;;;;;2.38;0.28;;;9.70;93.90;;;;;;3595154;40;20042;-78
2021/05/05 09:14:57;;;;;;;2.13;0.10;;;9.90;93.40;;;;;;3592559;40;20525;-76
2021/05/05 09:17:26;;;;;;;3.70;0.20;;;9.70;92.50;;;;;;3588489;40;20039;-76
2021/05/05 09:20:03;;;;;;;0.40;0.10;;;9.50;92.80;;;;;;3591406;40;20128;-77
2021/05/05 09:22:37;;;;;;;2.88;0.10;;;9.20;91.90;;;;;;3586715;40;20101;-77
2021/05/05 09:25:09;;;;;;;6.57;0.43;;;9.10;92.80;;;;;;3586518;40;20362;-77
2021/05/05 09:27:36;;;;;;;8.50;0.60;;;9.00;93.10;;;;;;3596157;40;20039;-77
2021/05/05 09:30:05;;;;;;;5.18;0.20;;;9.10;93.00;;;;;;3578428;40;20316;-75
2021/05/05 09:32:48;;;;;;;5.57;0.20;;;9.20;92.50;;;;;;3584858;40;20382;-76
2021/05/05 09:35:14;;;;;;;4.07;0.20;;;9.20;93.10;;;;;;3582481;40;20048;-76
2021/05/05 09:37:39;;;;;;;4.90;0.30;;;9.10;92.10;;;;;;3580736;40;20051;-76
2021/05/05 09:40:09;;;;;;;2.95;0.10;;;8.80;92.60;;;;;;3585778;40;20400;-77
2021/05/05 09:42:36;;;;;;;2.28;1.05;;;8.80;93.50;;;;;;3580420;40;20040;-77
2021/05/05 09:45:10;;;;;;;3.88;0.43;;;8.80;93.30;;;;;;3582710;40;20141;-76
2021/05/05 09:47:56;;;;;;;5.45;0.60;;;8.80;93.50;;;;;;3585809;40;20410;-78
2021/05/05 09:50:35;;;;;;;2.00;0.68;;;8.90;93.50;;;;;;3585917;40;20071;-76
2021/05/05 09:53:20;;;;;;;1.63;0.10;;;9.00;93.20;;;;;;3585403;40;20081;-75
2021/05/05 09:56:08;;;;;;;2.17;0.30;;;9.10;94.10;;;;;;3582836;40;20343;-77
2021/05/05 09:58:42;;;;;;;5.85;0.90;;;9.10;93.00;;;;;;3584271;40;20044;-75
2021/05/05 10:01:10;;;;;;;;;;;8.90;92.10;;;;;;3576986;40;20044;-75
2021/05/05 10:03:50;;;;;;;2.95;0.82;;;8.80;92.10;;;;;;3575852;40;19947;-75
2021/05/05 10:06:32;;;;;;;4.13;0.68;;;8.60;91.70;;;;;;3575553;40;20098;-75
2021/05/05 10:09:08;;;;;;;3.85;0.20;;;8.40;92.90;;;;;;3575554;40;20123;-74
2021/05/05 10:11:40;;;;;;;4.63;0.20;;;8.40;93.80;;;;;;3566635;40;20375;-76
2021/05/05 10:14:11;;;;;;;4.53;0.85;;;8.40;93.60;;;;;;3575478;40;20103;-75
2021/05/05 10:16:40;;;;;;;4.88;0.20;;;8.40;93.80;;;;;;3566306;40;20025;-74
2021/05/05 10:19:27;;;;;;;7.10;0.30;;;8.60;93.20;;;;;;3575468;40;20041;-75
2021/05/05 10:22:00;;;;;;;7.93;0.65;;;8.80;93.90;;;;;;3572602;40;20200;-75
2021/05/05 10:24:30;;;;;;;6.95;0.43;;;9.10;93.70;;;;;;3572685;40;20048;-75
2021/05/05 10:26:56;;;;;;;5.85;0.50;;;9.30;93.10;;;;;;3575291;40;20044;-75
2021/05/05 10:29:22;;;;;;;1.65;0.35;;;9.40;93.00;;;;;;3575484;40;20057;-76
2021/05/05 10:31:54;;;;;;;3.08;0.50;;;9.30;91.90;;;;;;3575372;40;20041;-74
2021/05/05 10:34:22;;;;;;;3.03;0.20;;;9.00;91.30;;;;;;3566496;40;20056;-75
2021/05/05 10:39:20;;;;;;;13.23;0.93;;;8.90;92.60;;;;;;3586713;23;20122;-77
2021/05/05 10:42:03;;;;;;;6.80;0.73;;;9.10;93.00;;;;;;3585437;40;20138;-76
2021/05/05 10:44:48;;;;;;;2.67;0.20;;;9.20;91.80;;;;;;3585473;40;20345;-77
2021/05/05 10:47:30;;;;;;;3.15;0.30;;;9.50;89.80;;;;;;3583276;40;20202;-78
2021/05/05 10:50:06;;;;;;;1.90;0.20;;;9.60;90.60;;;;;;3582412;40;20087;-78
2021/05/05 10:52:35;;;;;;;5.47;0.75;;;9.70;91.10;;;;;;3585514;40;20037;-77
2021/05/05 10:55:18;;;;;;;8.38;0.50;;;9.90;90.30;;;;;;3585283;40;20044;-76
2021/05/05 10:58:25;;;;;;;2.15;0.68;;;10.00;92.20;;;;;;3577718;40;20102;-78
2021/05/05 11:01:02;;;;;;;3.20;0.60;;;9.90;88.00;;;;;;3554678;40;20240;-78
2021/05/05 11:03:57;;;;;;;3.97;0.20;;;9.70;91.00;;;;;;3555160;40;20056;-78
2021/05/05 11:06:29;;;;;;;5.03;0.20;;;9.70;90.40;;;;;;3573044;40;20043;-78
2021/05/05 11:08:56;;;;;;;3.72;0.20;;;9.70;89.30;;;;;;3586763;40;20066;-79
2021/05/05 11:11:36;;;;;;;4.78;0.20;;;9.70;90.10;;;;;;3586990;40;20036;-78
2021/05/05 11:14:02;;;;;;;6.43;0.43;;;9.90;91.10;;;;;;3578273;40;20033;-77
2021/05/05 11:17:01;;;;;;;5.95;0.77;;;10.10;90.50;;;;;;3586965;40;20047;-79
2021/05/05 11:19:42;;;;;;;5.20;0.28;;;10.30;90.50;;;;;;3583663;40;20047;-79
2021/05/05 11:22:33;;;;;;;8.32;0.40;;;10.30;90.00;;;;;;3586776;40;20032;-78
2021/05/05 11:25:17;;;;;;;3.88;1.10;;;10.10;87.90;;;;;;3586829;40;20617;-79
2021/05/05 11:27:44;;;;;;;;;;;9.70;90.00;;;;;;3587390;40;20044;-79
2021/05/05 11:30:31;;;;;;;4.13;0.40;;;9.70;85.10;;;;;;3578425;40;19924;-78
2021/05/05 11:32:57;;;;;;;6.82;0.80;;;9.80;87.20;;;;;;3579569;40;20045;-76
2021/05/05 11:35:28;;;;;;;8.63;1.92;;;9.90;87.90;;;;;;3578015;40;20467;-79
2021/05/05 11:38:04;;;;;;;5.15;0.40;;;9.90;88.00;;;;;;3589626;40;20040;-79
2021/05/05 11:40:30;;;;;;;4.18;0.35;;;9.90;88.70;;;;;;3595140;40;20039;-80
2021/05/05 11:42:56;;;;;;;5.38;0.20;;;9.80;86.20;;;;;;3596787;40;20043;-78
2021/05/05 11:45:21;;;;;;;3.72;0.30;;;9.90;86.50;;;;;;3584615;40;20426;-80
2021/05/05 11:47:47;;;;;;;2.70;0.20;;;10.00;87.50;;;;;;3579271;40;20054;-81
2021/05/05 11:50:22;;;;;;;9.38;0.50;;;10.00;83.30;;;;;;3587735;40;20032;-80
2021/05/05 11:52:51;;;;;;;5.10;0.30;;;10.30;89.00;;;;;;3590944;40;20039;-80
2021/05/05 11:55:30;;;;;;;5.93;0.50;;;10.40;84.30;;;;;;3586981;40;20076;-80
2021/05/05 11:57:58;;;;;;;6.53;3.00;;;10.20;84.80;;;;;;3588577;40;20044;-80
2021/05/05 12:00:31;;;;;;;4.88;0.28;;;10.10;86.90;;;;;;3587308;40;20320;-80
2021/05/05 12:03:03;;;;;;;5.07;0.38;;;10.10;81.30;;;;;;3577565;40;20039;-81
2021/05/05 12:05:30;;;;;;;1.95;0.20;;;10.00;80.10;;;;;;3587039;40;20047;-81
2021/05/05 12:07:59;;;;;;;4.20;0.50;;;9.80;80.70;;;;;;3589731;40;20056;-81
2021/05/05 12:10:35;;;;;;;8.93;0.43;;;9.90;81.90;;;;;;3586738;40;20386;-80
2021/05/05 12:13:07;;;;;;;6.88;0.60;;;9.80;84.70;;;;;;3586312;40;20068;-81
2021/05/05 12:15:35;;;;;;;8.48;0.43;;;9.70;82.80;;;;;;3583422;40;20036;-81
2021/05/05 12:18:12;;;;;;;9.68;0.85;;;9.70;86.10;;;;;;3587311;40;20039;-81
2021/05/05 12:20:39;;;;;;;4.57;0.50;;;9.80;83.00;;;;;;3588494;40;20614;-81
2021/05/05 12:23:04;;;;;;;10.68;0.63;;;9.80;86.60;;;;;;3593492;40;20036;-82
2021/05/05 12:25:32;;;;;;;5.50;0.30;;;9.80;86.40;;;;;;3579686;40;20055;-80
2021/05/05 12:28:11;;;;;;;3.17;0.32;;;9.80;87.70;;;;;;3586609;40;20064;-81
2021/05/05 12:30:44;;;;;;;3.03;0.30;;;9.50;85.10;;;;;;3594737;40;20032;-80
2021/05/05 12:33:34;;;;;;;4.63;0.20;;;9.40;90.00;;;;;;3596562;40;20040;-80
2021/05/05 12:36:02;;;;;;;4.10;0.20;;;9.60;90.60;;;;;;3594564;40;20572;-79
2021/05/05 12:38:37;;;;;;;4.35;0.20;;;9.80;89.70;;;;;;3590203;40;20044;-80
2021/05/05 12:41:06;;;;;;;6.30;1.23;;;10.20;90.30;;;;;;3586406;40;20480;-78
2021/05/05 12:43:33;;;;;;;7.07;0.52;;;10.30;87.10;;;;;;3588104;40;20040;-80
2021/05/05 12:46:01;;;;;;;9.75;0.30;;;10.40;82.80;;;;;;3587519;40;20062;-79
2021/05/05 12:48:30;;;;;;;7.00;0.55;;;10.50;88.00;;;;;;3569350;40;20047;-81
2021/05/05 12:51:09;;;;;;;3.70;0.70;;;10.50;85.20;;;;;;3577120;40;20054;-81
2021/05/05 12:53:50;;;;;;;4.65;0.45;;;10.60;82.70;;;;;;3577658;40;20240;-81
2021/05/05 12:56:19;;;;;;;11.50;0.43;;;10.70;82.20;;;;;;3584181;40;20044;-79
2021/05/05 12:58:46;;;;;;;12.43;0.70;;;10.60;85.70;;;;;;3582920;40;20040;-81
2021/05/05 13:01:14;;;;;;;6.72;1.15;;;10.50;83.90;;;;;;3591328;40;20117;-82
2021/05/05 13:03:46;;;;;;;8.10;0.60;;;10.20;79.60;;;;;;3587267;40;20124;-81
2021/05/05 13:06:14;;;;;;;13.57;1.35;;;10.00;82.30;;;;;;3587045;40;20050;-82
2021/05/05 13:08:49;;;;;;;6.80;0.57;;;9.70;84.60;;;;;;3587639;40;20337;-80
2021/05/05 13:11:37;;;;;;;11.88;1.48;;;9.30;87.90;;;;;;3597098;40;20032;-79
2021/05/05 13:14:10;;;;;;;8.48;0.50;;;9.00;89.40;;;;;;3595804;40;20036;-80
2021/05/05 13:31:34;;;;;;;7.28;0.77;;;7.70;92.40;;;;;;3591604;40;20372;-77